Time;durP1;ratioP1;P1;durP2;ratioP2;P2;SDS_P1;SDS_P2;PMS_P1;PMS_P2;Temp;Humidity;BMP_temperature;BMP_pressure;BME280_temperature;BME280_humidity;BME280_pressure;Samples;Min_cycle;Max_cycle;Signal;HPM_P1;HPM_P2
2022/01/07 00:01:13;;;;;;;12.00;5.10;;;2.50;1.00;;;;;;5070690;28;20538;-59
2022/01/07 00:03:44;;;;;;;10.47;4.47;;;2.50;1.00;;;;;;5085665;28;20213;-59
2022/01/07 00:06:13;;;;;;;15.87;4.43;;;2.50;1.00;;;;;;5067325;28;20217;-59
2022/01/07 00:08:40;;;;;;;10.97;4.50;;;2.60;1.00;;;;;;5065406;28;20191;-59
2022/01/07 00:11:07;;;;;;;13.53;4.70;;;2.60;1.00;;;;;;5088609;28;20281;-59
2022/01/07 00:13:34;;;;;;;17.30;4.93;;;2.60;1.00;;;;;;5062806;28;20206;-59
2022/01/07 00:16:01;;;;;;;17.50;5.40;;;2.60;1.00;;;;;;5052262;28;20255;-59
2022/01/07 00:18:28;;;;;;;11.03;4.77;;;2.60;1.00;;;;;;5086655;28;20210;-58
2022/01/07 00:20:55;;;;;;;14.87;5.33;;;2.60;1.00;;;;;;5085060;28;20627;-59
2022/01/07 00:23:23;;;;;;;10.73;4.23;;;2.70;1.00;;;;;;5060224;28;20581;-59
2022/01/07 00:25:53;;;;;;;16.07;4.10;;;2.70;1.00;;;;;;5084814;28;20190;-59
2022/01/07 00:28:20;;;;;;;14.20;4.30;;;2.80;1.00;;;;;;5086476;28;20735;-59
2022/01/07 00:30:47;;;;;;;7.43;4.10;;;2.70;1.00;;;;;;5086522;28;20751;-59
2022/01/07 00:33:15;;;;;;;15.30;5.20;;;2.70;1.00;;;;;;5044891;28;1209042;-59
2022/01/07 00:35:42;;;;;;;11.57;5.00;;;2.70;1.00;;;;;;5077499;28;20256;-59
2022/01/07 00:38:10;;;;;;;11.90;4.57;;;2.60;1.00;;;;;;5064813;28;20223;-58
2022/01/07 00:40:37;;;;;;;15.37;4.03;;;2.60;1.00;;;;;;5086056;28;20224;-59
2022/01/07 00:43:04;;;;;;;12.10;3.93;;;2.70;1.00;;;;;;5088476;28;20222;-59
2022/01/07 00:45:32;;;;;;;11.30;4.40;;;2.80;1.00;;;;;;5088082;28;20185;-59
2022/01/07 00:47:59;;;;;;;11.60;3.93;;;2.70;1.00;;;;;;5087098;28;20222;-59
2022/01/07 00:50:29;;;;;;;10.07;3.97;;;2.70;1.00;;;;;;5086429;28;20242;-59
2022/01/07 00:52:56;;;;;;;9.23;3.93;;;2.70;1.00;;;;;;5084298;28;20191;-58
2022/01/07 00:55:26;;;;;;;9.87;3.77;;;2.70;1.00;;;;;;5088442;28;20199;-59
2022/01/07 00:57:54;;;;;;;13.53;4.40;;;2.90;99.90;;;;;;5085985;28;20767;-59
2022/01/07 01:00:27;;;;;;;9.13;3.47;;;2.90;99.90;;;;;;5067349;28;20214;-59
2022/01/07 01:02:55;;;;;;;12.17;3.47;;;2.90;99.90;;;;;;5078386;28;20190;-59
2022/01/07 01:05:23;;;;;;;13.83;4.17;;;2.90;1.00;;;;;;5050296;28;20256;-59
2022/01/07 01:07:53;;;;;;;11.60;4.47;;;3.00;99.90;;;;;;5085350;28;20224;-58
2022/01/07 01:10:22;;;;;;;10.40;3.70;;;3.00;99.90;;;;;;5084066;28;20244;-59
2022/01/07 01:12:49;;;;;;;14.97;4.13;;;3.00;99.90;;;;;;5062531;28;20190;-59
2022/01/07 01:15:22;;;;;;;9.07;3.30;;;3.00;99.90;;;;;;5051368;28;20226;-59
2022/01/07 01:17:53;;;;;;;9.07;3.40;;;3.00;99.90;;;;;;5085665;28;20222;-59
2022/01/07 01:20:20;;;;;;;12.90;3.50;;;3.10;99.90;;;;;;5062028;28;20210;-58
2022/01/07 01:22:48;;;;;;;10.47;3.87;;;3.10;99.90;;;;;;5068724;28;20202;-58
2022/01/07 01:25:18;;;;;;;13.10;3.77;;;3.00;99.90;;;;;;5066419;28;20190;-59
2022/01/07 01:27:46;;;;;;;10.33;3.87;;;3.00;99.90;;;;;;5066257;28;20228;-59
2022/01/07 01:30:17;;;;;;;8.83;3.50;;;3.10;99.90;;;;;;5086314;28;20251;-59
2022/01/07 01:32:48;;;;;;;13.07;4.10;;;3.00;99.90;;;;;;5058746;28;20241;-59
2022/01/07 01:35:16;;;;;;;11.97;3.63;;;3.10;99.90;;;;;;5057795;28;20199;-59
2022/01/07 01:37:46;;;;;;;8.50;3.63;;;3.10;99.90;;;;;;5060698;28;20719;-59
2022/01/07 01:40:15;;;;;;;8.10;3.43;;;3.10;99.90;;;;;;5074013;28;20256;-59
2022/01/07 01:42:43;;;;;;;9.37;3.70;;;3.10;99.90;;;;;;5063922;28;20822;-59
2022/01/07 01:45:11;;;;;;;6.77;3.50;;;3.10;99.90;;;;;;5066806;28;20693;-59
2022/01/07 01:47:38;;;;;;;12.33;4.00;;;3.20;99.90;;;;;;5064092;28;20678;-58
2022/01/07 01:50:06;;;;;;;7.93;3.67;;;3.10;99.90;;;;;;5064772;28;20202;-58
2022/01/07 01:52:34;;;;;;;10.17;3.73;;;3.10;99.90;;;;;;5062918;28;20198;-59
2022/01/07 01:55:02;;;;;;;7.90;3.80;;;3.10;99.90;;;;;;5065925;28;20237;-59
2022/01/07 01:57:31;;;;;;;7.83;3.43;;;3.10;99.90;;;;;;5063205;28;20199;-59
2022/01/07 01:59:59;;;;;;;9.57;3.80;;;3.20;99.90;;;;;;5065587;28;20215;-59
2022/01/07 02:02:26;;;;;;;15.80;3.73;;;3.10;99.90;;;;;;5044064;28;20200;-58
2022/01/07 02:04:53;;;;;;;11.90;4.33;;;3.20;99.90;;;;;;5067760;28;20740;-59
2022/01/07 02:07:20;;;;;;;14.50;3.43;;;3.30;99.90;;;;;;5064041;28;20195;-59
2022/01/07 02:09:47;;;;;;;10.43;3.70;;;3.20;99.90;;;;;;5065166;28;20295;-59
2022/01/07 02:12:19;;;;;;;10.27;3.17;;;3.20;99.90;;;;;;5065593;28;20976;-59
2022/01/07 02:14:56;;;;;;;9.40;3.37;;;3.30;99.90;;;;;;5065787;28;20244;-59
2022/01/07 02:17:25;;;;;;;4.67;3.30;;;3.30;99.90;;;;;;5066287;28;20198;-58
2022/01/07 02:19:53;;;;;;;9.90;3.60;;;3.30;99.90;;;;;;5065111;28;20207;-59
2022/01/07 02:22:21;;;;;;;6.93;3.23;;;3.30;99.90;;;;;;5063839;28;20235;-59
2022/01/07 02:24:48;;;;;;;8.33;3.77;;;3.30;99.90;;;;;;5056822;28;20340;-59
2022/01/07 02:27:16;;;;;;;6.00;3.50;;;3.30;99.90;;;;;;5064543;28;20835;-59
2022/01/07 02:29:45;;;;;;;7.87;3.40;;;3.40;99.90;;;;;;5066548;28;20299;-59
2022/01/07 02:32:13;;;;;;;9.97;3.67;;;3.40;99.90;;;;;;5067042;28;20523;-58
2022/01/07 02:34:40;;;;;;;12.33;3.90;;;3.40;99.90;;;;;;5084209;28;20252;-59
2022/01/07 02:37:07;;;;;;;9.10;3.83;;;3.40;99.90;;;;;;5082919;28;20611;-59
2022/01/07 02:39:37;;;;;;;8.47;4.17;;;3.40;99.90;;;;;;5075254;28;20287;-59
2022/01/07 02:42:05;;;;;;;12.77;3.90;;;3.40;99.90;;;;;;5086308;28;20212;-59
2022/01/07 02:44:32;;;;;;;8.37;3.80;;;3.50;99.90;;;;;;5087245;28;20723;-60
2022/01/07 02:47:00;;;;;;;9.57;3.77;;;3.40;99.90;;;;;;5068557;28;20253;-59
2022/01/07 02:49:27;;;;;;;10.77;3.73;;;3.50;99.90;;;;;;5086440;28;20198;-59
2022/01/07 02:51:54;;;;;;;5.03;3.60;;;3.50;99.90;;;;;;5052539;28;20621;-60
2022/01/07 02:54:21;;;;;;;7.77;4.03;;;3.50;99.90;;;;;;5067217;28;20194;-59
2022/01/07 02:56:48;;;;;;;6.37;4.33;;;3.50;99.90;;;;;;5085928;28;20321;-59
2022/01/07 02:59:15;;;;;;;9.20;3.63;;;3.50;99.90;;;;;;5085313;28;20210;-59
2022/01/07 03:01:42;;;;;;;10.13;4.00;;;3.50;99.90;;;;;;5084472;28;20199;-59
2022/01/07 03:04:09;;;;;;;7.03;3.40;;;3.50;99.90;;;;;;5086958;28;20205;-59
2022/01/07 03:06:37;;;;;;;11.53;3.83;;;3.50;99.90;;;;;;5048391;28;20206;-59
2022/01/07 03:09:05;;;;;;;8.90;3.87;;;3.50;99.90;;;;;;5084974;28;20236;-58
2022/01/07 03:11:33;;;;;;;8.30;3.63;;;3.50;99.90;;;;;;5084913;28;20629;-58
2022/01/07 03:14:00;;;;;;;17.53;5.20;;;3.50;99.90;;;;;;5085552;28;20225;-59
2022/01/07 03:16:27;;;;;;;10.70;4.20;;;3.50;99.90;;;;;;5066634;28;20244;-59
2022/01/07 03:18:57;;;;;;;5.33;3.60;;;3.50;99.90;;;;;;5084390;28;20595;-59
2022/01/07 03:21:24;;;;;;;6.27;3.67;;;3.50;99.90;;;;;;5067690;28;20226;-59
2022/01/07 03:23:51;;;;;;;7.27;3.90;;;3.50;99.90;;;;;;5082763;28;20194;-59
2022/01/07 03:26:21;;;;;;;6.47;3.70;;;3.50;99.90;;;;;;5069654;28;20233;-59
2022/01/07 03:28:49;;;;;;;9.00;3.70;;;3.50;99.90;;;;;;5086207;28;20902;-59
2022/01/07 03:31:16;;;;;;;8.03;3.43;;;3.50;1.00;;;;;;5087662;28;20248;-60
2022/01/07 03:33:45;;;;;;;8.10;3.77;;;3.40;1.00;;;;;;5088352;28;20222;-59
2022/01/07 03:36:12;;;;;;;10.33;3.97;;;3.40;1.00;;;;;;5069078;28;20215;-58
2022/01/07 03:38:39;;;;;;;9.60;3.67;;;3.40;1.00;;;;;;5082640;28;20247;-58
2022/01/07 03:41:09;;;;;;;6.10;3.30;;;3.30;1.00;;;;;;5067345;28;20218;-59
2022/01/07 03:43:36;;;;;;;7.23;4.07;;;3.30;1.00;;;;;;5087077;28;20182;-59
2022/01/07 03:46:04;;;;;;;11.43;4.60;;;3.30;1.00;;;;;;5085877;28;20198;-59
2022/01/07 03:48:31;;;;;;;8.83;3.90;;;3.30;1.00;;;;;;5071439;28;20273;-59
2022/01/07 03:50:58;;;;;;;8.63;4.20;;;3.30;1.00;;;;;;5087317;28;20202;-59
2022/01/07 03:53:25;;;;;;;8.80;4.57;;;3.20;1.00;;;;;;5087668;28;20194;-59
2022/01/07 03:55:55;;;;;;;9.70;4.00;;;3.20;1.00;;;;;;5088271;28;20209;-59
2022/01/07 03:58:22;;;;;;;9.33;3.73;;;3.20;1.00;;;;;;5089170;28;20220;-59
2022/01/07 04:00:49;;;;;;;11.93;3.80;;;3.20;1.00;;;;;;5065968;28;20224;-59
2022/01/07 04:03:18;;;;;;;7.87;5.17;;;3.20;1.00;;;;;;5085439;28;20197;-59
2022/01/07 04:05:46;;;;;;;6.80;3.10;;;3.20;1.00;;;;;;5069897;28;20208;-59
2022/01/07 04:08:16;;;;;;;11.83;4.53;;;3.20;1.00;;;;;;5085777;28;20202;-59
2022/01/07 04:10:45;;;;;;;14.37;4.47;;;3.20;1.00;;;;;;5071071;28;20190;-59
2022/01/07 04:13:13;;;;;;;8.00;4.40;;;3.20;1.00;;;;;;5086593;28;20797;-59
2022/01/07 04:15:40;;;;;;;8.40;4.07;;;3.20;1.00;;;;;;5087996;28;20198;-59
2022/01/07 04:18:07;;;;;;;8.37;4.33;;;3.20;1.00;;;;;;5068295;28;20266;-59
2022/01/07 04:20:35;;;;;;;9.10;4.20;;;3.20;1.00;;;;;;5085191;28;20230;-59
2022/01/07 04:23:07;;;;;;;6.67;4.47;;;3.20;1.00;;;;;;5083293;28;20281;-59
2022/01/07 04:25:34;;;;;;;6.30;4.40;;;3.20;1.00;;;;;;5086980;28;20190;-59
2022/01/07 04:28:05;;;;;;;8.77;3.90;;;3.20;1.00;;;;;;5086999;28;20212;-59
2022/01/07 04:30:35;;;;;;;8.07;4.20;;;3.20;1.00;;;;;;5087493;28;20243;-59
2022/01/07 04:33:04;;;;;;;8.57;4.60;;;3.10;1.00;;;;;;5068444;28;20623;-59
2022/01/07 04:35:34;;;;;;;8.23;3.60;;;3.00;99.90;;;;;;5087918;28;20198;-59
2022/01/07 04:38:01;;;;;;;7.17;3.90;;;3.00;29.50;;;;;;5063456;28;20263;-59
2022/01/07 04:40:28;;;;;;;12.47;4.60;;;3.00;91.90;;;;;;5070984;28;22173;-59
2022/01/07 04:42:56;;;;;;;9.07;4.70;;;2.90;99.90;;;;;;5087346;28;20210;-59
2022/01/07 04:45:23;;;;;;;12.13;4.83;;;2.90;99.90;;;;;;5086372;28;20677;-59
2022/01/07 04:47:52;;;;;;;11.07;5.03;;;2.80;99.90;;;;;;5062965;28;20282;-59
2022/01/07 04:50:22;;;;;;;6.20;4.10;;;2.80;99.90;;;;;;5086963;28;20287;-59
2022/01/07 04:52:49;;;;;;;9.40;4.83;;;2.80;99.90;;;;;;5086043;28;20202;-59
2022/01/07 04:55:22;;;;;;;12.07;4.70;;;2.70;99.90;;;;;;5070604;28;20199;-59
2022/01/07 04:57:49;;;;;;;8.53;4.80;;;2.70;1.00;;;;;;5086006;28;20186;-59
2022/01/07 05:00:18;;;;;;;9.27;4.50;;;2.60;1.00;;;;;;5067962;28;20210;-59
2022/01/07 05:02:45;;;;;;;9.93;4.77;;;2.50;1.00;;;;;;5086173;28;20679;-59
2022/01/07 05:05:12;;;;;;;13.33;4.50;;;2.50;1.00;;;;;;5086559;28;20213;-59
2022/01/07 05:07:40;;;;;;;9.50;4.63;;;2.50;1.00;;;;;;5087279;28;20229;-59
2022/01/07 05:10:12;;;;;;;11.27;4.73;;;2.40;1.00;;;;;;5087194;28;20206;-59
2022/01/07 05:12:39;;;;;;;12.20;5.30;;;2.50;1.00;;;;;;5087334;28;20195;-59
2022/01/07 05:15:07;;;;;;;10.37;4.80;;;2.50;1.00;;;;;;5087683;28;20206;-59
2022/01/07 05:17:34;;;;;;;8.97;5.17;;;2.50;1.00;;;;;;5086978;28;20198;-59
2022/01/07 05:20:02;;;;;;;10.13;5.00;;;2.60;1.00;;;;;;5087637;28;20206;-58
2022/01/07 05:22:29;;;;;;;11.63;4.90;;;2.60;1.00;;;;;;5086545;28;20263;-58
2022/01/07 05:24:56;;;;;;;8.97;4.67;;;2.60;1.00;;;;;;5084872;28;20277;-58
2022/01/07 05:27:23;;;;;;;11.93;4.90;;;2.60;1.00;;;;;;5068525;28;20198;-59
2022/01/07 05:29:50;;;;;;;7.57;5.17;;;2.60;1.00;;;;;;5086433;28;20655;-59
2022/01/07 05:32:17;;;;;;;11.33;5.90;;;2.60;1.00;;;;;;5086331;28;20281;-59
2022/01/07 05:34:44;;;;;;;8.83;4.80;;;2.60;1.00;;;;;;5050675;28;20222;-59
2022/01/07 05:37:11;;;;;;;11.83;5.93;;;2.70;99.90;;;;;;5088690;28;20191;-60
2022/01/07 05:39:39;;;;;;;10.97;5.20;;;2.70;1.00;;;;;;5070924;28;20273;-59
2022/01/07 05:42:08;;;;;;;10.10;4.80;;;2.70;1.00;;;;;;5087505;28;20267;-59
2022/01/07 05:44:35;;;;;;;11.20;5.53;;;2.70;99.90;;;;;;5069341;28;20201;-59
2022/01/07 05:47:02;;;;;;;10.67;4.33;;;2.80;99.90;;;;;;5087458;28;20188;-59
2022/01/07 05:49:29;;;;;;;7.50;3.90;;;2.90;99.90;;;;;;5070114;28;20226;-59
2022/01/07 05:51:56;;;;;;;8.23;3.90;;;2.90;99.90;;;;;;5070409;28;20206;-59
2022/01/07 05:54:23;;;;;;;6.97;4.07;;;2.90;99.90;;;;;;5070188;28;20214;-59
2022/01/07 05:56:50;;;;;;;7.90;3.47;;;2.90;99.90;;;;;;5089316;28;20222;-59
2022/01/07 05:59:17;;;;;;;5.17;3.33;;;2.90;99.90;;;;;;5046255;28;20720;-59
2022/01/07 06:01:47;;;;;;;8.27;3.93;;;3.00;99.90;;;;;;5089536;28;20313;-59
2022/01/07 06:04:14;;;;;;;8.37;4.37;;;3.00;99.90;;;;;;5088052;28;20222;-59
2022/01/07 06:06:41;;;;;;;8.57;3.33;;;3.10;43.00;;;;;;5086212;28;20269;-59
2022/01/07 06:09:08;;;;;;;9.10;3.90;;;3.10;34.40;;;;;;5086201;28;20190;-59
2022/01/07 06:11:35;;;;;;;9.77;3.37;;;3.10;39.40;;;;;;5086939;28;20695;-59
2022/01/07 06:14:02;;;;;;;4.73;2.90;;;3.10;1.00;;;;;;5070649;28;20186;-59
2022/01/07 06:16:29;;;;;;;7.97;3.30;;;3.20;15.90;;;;;;5088553;28;20201;-58
2022/01/07 06:18:57;;;;;;;5.87;3.67;;;3.10;1.00;;;;;;5088696;28;20648;-59
2022/01/07 06:21:24;;;;;;;4.37;3.53;;;3.10;14.20;;;;;;5083755;28;20700;-59
2022/01/07 06:23:52;;;;;;;6.63;3.63;;;3.20;1.00;;;;;;5086557;28;20194;-59
2022/01/07 06:26:19;;;;;;;6.00;3.53;;;3.20;1.00;;;;;;5066608;28;20225;-59
2022/01/07 06:28:45;;;;;;;5.43;3.03;;;3.30;1.00;;;;;;5065262;28;20198;-59
2022/01/07 06:31:12;;;;;;;10.33;3.03;;;3.30;1.00;;;;;;5061123;28;20234;-59
2022/01/07 06:33:42;;;;;;;8.87;3.53;;;3.30;1.00;;;;;;5085447;28;20248;-59
2022/01/07 06:36:09;;;;;;;5.37;3.03;;;3.30;1.00;;;;;;5048190;28;20228;-59
2022/01/07 06:38:36;;;;;;;4.50;2.80;;;3.30;1.00;;;;;;5085917;28;20543;-59
2022/01/07 06:41:04;;;;;;;5.07;2.83;;;3.40;1.00;;;;;;5063154;28;20301;-60
2022/01/07 06:43:31;;;;;;;5.40;3.00;;;3.40;1.00;;;;;;5079979;28;20191;-59
2022/01/07 06:45:58;;;;;;;6.43;3.37;;;3.40;1.00;;;;;;5045830;28;20665;-59
2022/01/07 06:48:25;;;;;;;6.07;3.27;;;3.40;1.00;;;;;;5084895;28;20182;-59
2022/01/07 06:50:52;;;;;;;6.90;3.30;;;3.30;1.00;;;;;;5079196;28;20278;-59
2022/01/07 06:53:19;;;;;;;5.10;2.97;;;3.30;1.00;;;;;;5073276;28;20202;-60
2022/01/07 06:55:57;;;;;;;9.03;3.20;;;3.30;1.00;;;;;;5078111;28;20205;-60
2022/01/07 06:58:24;;;;;;;7.70;3.10;;;3.30;1.00;;;;;;5079523;28;20572;-60
2022/01/07 07:00:52;;;;;;;4.93;3.10;;;3.40;1.00;;;;;;5079939;28;20222;-60
2022/01/07 07:03:19;;;;;;;7.43;3.00;;;3.30;1.00;;;;;;5061818;28;20197;-60
2022/01/07 07:05:46;;;;;;;6.53;2.97;;;3.30;1.00;;;;;;5069969;28;20666;-60
2022/01/07 07:08:16;;;;;;;5.17;3.00;;;3.20;99.90;;;;;;5060732;28;20672;-60
2022/01/07 07:10:43;;;;;;;3.93;2.60;;;3.20;99.90;;;;;;5065810;28;20730;-60
2022/01/07 07:13:10;;;;;;;6.80;2.80;;;3.20;83.40;;;;;;5085258;28;20202;-60
2022/01/07 07:15:37;;;;;;;6.10;2.90;;;3.20;99.90;;;;;;5085265;28;20282;-59
2022/01/07 07:18:04;;;;;;;5.87;3.17;;;3.20;95.60;;;;;;5089395;28;20673;-59
2022/01/07 07:20:31;;;;;;;9.57;3.43;;;3.30;57.00;;;;;;5054926;28;20260;-59
2022/01/07 07:22:58;;;;;;;10.57;3.80;;;3.20;99.90;;;;;;5072901;28;20522;-59
2022/01/07 07:25:25;;;;;;;4.20;2.73;;;3.20;42.10;;;;;;5095973;28;20202;-59
2022/01/07 07:27:52;;;;;;;6.37;2.80;;;3.20;66.30;;;;;;5077061;28;20190;-59
2022/01/07 07:30:19;;;;;;;6.63;2.80;;;3.20;94.40;;;;;;5085409;28;20194;-59
2022/01/07 07:32:48;;;;;;;4.50;3.20;;;3.30;54.60;;;;;;5088970;28;20234;-59
2022/01/07 07:37:42;;;;;;;6.37;3.37;;;3.30;92.20;;;;;;5089706;28;20238;-59
2022/01/07 07:40:09;;;;;;;8.90;3.83;;;3.20;99.90;;;;;;5087416;28;20239;-60
2022/01/07 07:42:37;;;;;;;5.73;3.47;;;3.20;99.90;;;;;;5087096;28;20202;-60
2022/01/07 07:45:09;;;;;;;5.53;2.90;;;3.20;92.40;;;;;;5079573;28;20249;-60
2022/01/07 07:47:36;;;;;;;6.23;3.00;;;3.20;99.40;;;;;;5049497;28;21526;-60
2022/01/07 07:50:04;;;;;;;5.40;3.57;;;3.20;99.90;;;;;;5073203;28;20217;-60
2022/01/07 07:52:31;;;;;;;4.20;2.80;;;3.20;99.90;;;;;;5069475;28;20272;-60
2022/01/07 07:54:58;;;;;;;4.30;3.40;;;3.30;55.50;;;;;;5087562;28;20538;-60
2022/01/07 07:57:24;;;;;;;5.07;3.37;;;3.20;99.90;;;;;;5062008;28;20197;-60
2022/01/07 07:59:51;;;;;;;7.20;3.60;;;3.30;99.90;;;;;;5083353;28;20684;-60
2022/01/07 08:02:18;;;;;;;6.43;3.00;;;3.30;99.90;;;;;;5086800;28;20245;-60
2022/01/07 08:04:45;;;;;;;6.33;2.90;;;3.20;55.10;;;;;;5068632;28;20218;-59
2022/01/07 08:07:16;;;;;;;6.17;3.07;;;3.20;48.50;;;;;;5083970;28;20194;-59
2022/01/07 08:09:45;;;;;;;5.43;3.40;;;3.30;99.80;;;;;;5062334;28;20673;-59
2022/01/07 08:12:51;;;;;;;4.90;3.00;;;3.30;70.70;;;;;;5083509;28;20282;-59
2022/01/07 08:17:44;;;;;;;5.67;3.03;;;3.30;2.20;;;;;;5088053;28;20251;-60
2022/01/07 08:20:12;;;;;;;4.87;3.03;;;3.40;22.50;;;;;;5086166;28;20244;-60
2022/01/07 08:22:39;;;;;;;4.87;3.00;;;3.40;27.20;;;;;;5082185;28;20240;-60
2022/01/07 08:25:06;;;;;;;4.37;3.03;;;3.40;1.00;;;;;;5081230;28;20194;-60
2022/01/07 08:27:33;;;;;;;5.00;3.17;;;3.40;1.00;;;;;;5085603;28;20293;-60
2022/01/07 08:30:10;;;;;;;6.43;3.13;;;3.50;1.00;;;;;;5080730;28;20243;-59
2022/01/07 08:35:23;;;;;;;3.17;2.87;;;3.60;1.00;;;;;;5066625;28;20231;-59
2022/01/07 08:37:50;;;;;;;5.10;3.60;;;3.60;4.00;;;;;;5066489;28;20237;-59
2022/01/07 08:40:17;;;;;;;4.33;3.23;;;3.60;1.00;;;;;;5065916;28;20249;-59
2022/01/07 08:42:44;;;;;;;4.60;3.70;;;3.60;1.00;;;;;;5061777;28;20187;-59
2022/01/07 08:45:11;;;;;;;8.50;3.53;;;3.60;1.00;;;;;;5066817;28;20249;-59
2022/01/07 08:47:38;;;;;;;5.43;3.70;;;3.60;1.00;;;;;;5059720;28;20647;-59
2022/01/07 08:50:05;;;;;;;6.03;3.73;;;3.70;1.00;;;;;;5053358;28;20198;-58
2022/01/07 08:52:32;;;;;;;6.00;4.00;;;3.70;1.00;;;;;;5045262;28;20195;-59
2022/01/07 08:54:59;;;;;;;5.27;3.63;;;3.70;1.00;;;;;;5074906;28;20238;-59
2022/01/07 08:57:26;;;;;;;5.77;4.43;;;3.70;1.00;;;;;;5063727;28;20195;-59
2022/01/07 08:59:53;;;;;;;5.30;3.33;;;3.70;23.90;;;;;;5067729;28;20203;-59
2022/01/07 09:02:20;;;;;;;4.80;3.60;;;3.70;1.00;;;;;;5068282;28;20215;-58
2022/01/07 09:04:48;;;;;;;5.63;4.10;;;3.80;1.00;;;;;;5061321;28;20203;-59
2022/01/07 09:07:15;;;;;;;4.97;3.60;;;3.80;1.00;;;;;;5048302;28;20223;-59
2022/01/07 09:09:41;;;;;;;5.20;3.57;;;3.80;1.00;;;;;;5059349;28;20222;-59
2022/01/07 09:12:09;;;;;;;4.47;3.87;;;3.80;1.00;;;;;;5063820;28;20202;-59
2022/01/07 09:14:36;;;;;;;6.77;3.73;;;3.80;1.00;;;;;;5063276;28;20202;-59
2022/01/07 09:17:04;;;;;;;4.30;3.60;;;3.70;1.00;;;;;;5063373;28;20316;-59
2022/01/07 09:19:31;;;;;;;5.47;3.57;;;3.80;1.00;;;;;;5063790;28;20290;-58
2022/01/07 09:21:58;;;;;;;4.70;3.50;;;3.80;1.00;;;;;;5059317;28;20308;-59
2022/01/07 09:24:29;;;;;;;5.13;4.03;;;3.90;1.00;;;;;;5080286;28;20675;-59
2022/01/07 09:26:57;;;;;;;6.03;3.73;;;3.90;1.00;;;;;;5067075;28;20234;-59
2022/01/07 09:29:26;;;;;;;6.13;3.50;;;3.90;1.00;;;;;;5064542;28;20278;-59
2022/01/07 09:31:55;;;;;;;3.73;3.30;;;3.90;1.00;;;;;;5047445;28;20288;-59
2022/01/07 09:34:22;;;;;;;5.80;3.70;;;3.90;1.00;;;;;;5062791;28;20226;-59
2022/01/07 09:36:54;;;;;;;5.00;3.93;;;4.00;1.00;;;;;;5066472;28;20203;-59
2022/01/07 09:39:21;;;;;;;5.47;3.90;;;4.00;1.00;;;;;;5058430;28;20206;-60
2022/01/07 09:41:49;;;;;;;5.67;3.60;;;4.10;1.00;;;;;;5069487;28;20210;-59
2022/01/07 09:44:16;;;;;;;5.60;4.17;;;4.10;1.00;;;;;;5062151;28;20187;-59
2022/01/07 09:46:44;;;;;;;4.77;3.77;;;4.10;1.00;;;;;;5064501;28;20218;-60
2022/01/07 09:49:11;;;;;;;6.90;4.17;;;4.20;1.00;;;;;;5067996;28;20199;-59
2022/01/07 09:51:39;;;;;;;5.27;4.00;;;4.20;1.00;;;;;;5064056;28;20222;-60
2022/01/07 09:54:08;;;;;;;6.47;4.20;;;4.30;1.00;;;;;;5066763;28;20526;-59
2022/01/07 09:56:35;;;;;;;6.57;4.07;;;4.30;1.00;;;;;;5067637;28;20206;-59
2022/01/07 09:59:05;;;;;;;5.87;4.23;;;4.40;1.00;;;;;;5068382;28;20669;-59
2022/01/07 10:01:58;;;;;;;7.53;4.27;;;4.50;1.00;;;;;;5063723;28;20214;-60
2022/01/07 10:04:33;;;;;;;7.00;5.03;;;4.40;1.00;;;;;;5063534;28;20242;-59
2022/01/07 10:07:12;;;;;;;7.30;5.07;;;4.40;1.00;;;;;;5065231;28;20186;-59
2022/01/07 10:09:56;;;;;;;5.97;4.53;;;4.40;1.00;;;;;;5058254;28;20219;-59
2022/01/07 10:12:23;;;;;;;8.00;4.87;;;4.40;1.00;;;;;;5059711;28;20211;-59
2022/01/07 10:15:16;;;;;;;8.43;4.50;;;4.40;1.00;;;;;;5065973;28;20198;-59
2022/01/07 10:18:02;;;;;;;6.70;4.20;;;4.40;1.00;;;;;;5059013;28;20191;-59
2022/01/07 10:20:42;;;;;;;5.67;4.47;;;4.40;1.00;;;;;;5064698;28;20770;-59
2022/01/07 10:23:14;;;;;;;9.10;4.67;;;4.30;1.00;;;;;;5067187;28;20213;-59
2022/01/07 10:25:44;;;;;;;4.97;4.47;;;4.30;1.00;;;;;;5065533;28;20751;-59
2022/01/07 10:28:13;;;;;;;6.47;4.87;;;4.40;1.00;;;;;;5065858;28;20226;-59
2022/01/07 10:30:43;;;;;;;6.77;4.70;;;4.30;1.00;;;;;;5064598;28;20252;-59
2022/01/07 10:33:22;;;;;;;5.83;4.20;;;4.40;1.00;;;;;;5074310;28;20238;-58
2022/01/07 10:35:55;;;;;;;6.53;4.23;;;4.40;1.00;;;;;;5088598;28;20230;-59
2022/01/07 10:38:27;;;;;;;9.40;3.97;;;4.40;1.00;;;;;;5069210;28;20206;-58
2022/01/07 10:40:59;;;;;;;7.50;3.97;;;4.30;1.00;;;;;;5090280;28;20202;-58
2022/01/07 10:43:34;;;;;;;6.17;4.13;;;4.40;1.00;;;;;;5087767;28;20194;-59
2022/01/07 10:46:11;;;;;;;10.07;4.20;;;4.40;1.00;;;;;;5087839;28;20193;-59
2022/01/07 10:48:44;;;;;;;8.17;3.87;;;4.40;1.00;;;;;;5070375;28;20281;-58
2022/01/07 10:51:13;;;;;;;5.63;3.83;;;4.40;1.00;;;;;;5070137;28;20194;-59
2022/01/07 10:53:46;;;;;;;4.70;3.93;;;4.50;1.00;;;;;;5073647;28;20194;-59
2022/01/07 10:56:16;;;;;;;5.97;3.73;;;4.50;1.00;;;;;;5091446;28;20684;-59
2022/01/07 10:58:44;;;;;;;4.30;3.87;;;4.50;1.00;;;;;;5104779;28;20759;-60
2022/01/07 11:01:23;;;;;;;6.30;3.70;;;4.60;1.00;;;;;;5108227;28;20233;-58
2022/01/07 11:04:01;;;;;;;5.77;3.90;;;4.60;1.00;;;;;;5110492;28;20213;-59
2022/01/07 11:06:41;;;;;;;7.67;4.00;;;4.40;1.00;;;;;;5074034;28;20210;-59
2022/01/07 11:09:32;;;;;;;7.23;4.80;;;4.40;1.00;;;;;;5076315;28;20196;-58
2022/01/07 11:12:09;;;;;;;5.97;3.73;;;4.50;1.00;;;;;;5089808;28;20178;-59
2022/01/07 11:14:42;;;;;;;5.60;4.00;;;4.50;1.00;;;;;;5078632;28;20194;-58
2022/01/07 11:17:40;;;;;;;6.30;4.07;;;4.50;1.00;;;;;;5104730;28;20194;-59
2022/01/07 11:20:20;;;;;;;5.97;4.43;;;4.50;1.00;;;;;;5104595;28;20658;-59
2022/01/07 11:22:56;;;;;;;5.00;3.87;;;4.50;1.00;;;;;;5089215;28;20218;-59
2022/01/07 11:25:34;;;;;;;7.63;4.03;;;4.60;1.00;;;;;;5090692;28;20196;-59
2022/01/07 11:28:18;;;;;;;7.13;4.33;;;4.60;1.00;;;;;;5104121;28;20206;-59
2022/01/07 11:30:50;;;;;;;6.20;4.10;;;4.60;1.00;;;;;;5083852;28;20178;-59
2022/01/07 11:33:24;;;;;;;7.13;4.17;;;4.60;1.00;;;;;;5082376;28;20339;-59
2022/01/07 11:35:56;;;;;;;7.30;3.80;;;4.80;1.00;;;;;;5084549;28;20656;-59
2022/01/07 11:38:41;;;;;;;6.07;3.93;;;4.80;1.00;;;;;;5083452;28;20242;-59
2022/01/07 11:41:45;;;;;;;7.30;3.80;;;4.90;1.00;;;;;;5099674;28;20206;-59
2022/01/07 11:44:30;;;;;;;7.23;4.27;;;5.10;1.00;;;;;;5077446;28;20184;-59
2022/01/07 11:47:23;;;;;;;5.17;3.63;;;5.30;1.00;;;;;;5083728;28;20226;-59
2022/01/07 11:50:08;;;;;;;5.97;3.63;;;5.20;1.00;;;;;;5085383;28;20194;-59
2022/01/07 11:52:41;;;;;;;6.73;4.00;;;5.30;1.00;;;;;;5083213;28;20199;-59
2022/01/07 11:55:30;;;;;;;6.27;3.30;;;5.30;1.00;;;;;;5097803;28;20202;-59
2022/01/07 11:58:06;;;;;;;6.63;3.70;;;5.40;1.00;;;;;;5080138;28;20197;-59
2022/01/07 12:00:57;;;;;;;7.17;3.60;;;5.50;1.00;;;;;;5101088;28;20266;-58
2022/01/07 12:03:45;;;;;;;6.47;3.93;;;5.40;1.00;;;;;;5094666;28;20233;-59
2022/01/07 12:06:24;;;;;;;5.50;3.07;;;5.50;1.00;;;;;;5074209;28;20164;-59
2022/01/07 12:11:46;;;;;;;4.67;3.27;;;5.60;1.00;;;;;;5082482;28;20213;-60
2022/01/07 12:14:26;;;;;;;5.70;3.47;;;5.70;1.00;;;;;;5066722;28;20293;-60
2022/01/07 12:16:56;;;;;;;11.10;4.43;;;5.50;1.00;;;;;;5044731;28;20201;-60
2022/01/07 12:19:47;;;;;;;4.97;3.00;;;5.40;1.00;;;;;;5053418;28;20258;-60
2022/01/07 12:22:16;;;;;;;8.33;3.87;;;5.40;1.00;;;;;;5062832;28;20293;-59
2022/01/07 12:24:49;;;;;;;3.93;2.97;;;5.40;1.00;;;;;;5044981;28;20188;-58
2022/01/07 12:27:20;;;;;;;7.40;3.03;;;5.40;1.00;;;;;;5040775;28;20588;-60
2022/01/07 12:29:57;;;;;;;5.53;3.13;;;5.40;1.00;;;;;;5060289;28;20218;-60
2022/01/07 12:32:34;;;;;;;4.63;3.27;;;5.40;1.00;;;;;;5054814;28;20291;-59
2022/01/07 12:35:05;;;;;;;4.73;3.13;;;5.40;1.00;;;;;;5039081;28;20213;-58
2022/01/07 12:37:33;;;;;;;5.87;3.50;;;5.40;1.00;;;;;;5085014;28;20282;-59
2022/01/07 12:40:04;;;;;;;4.10;2.80;;;5.40;1.00;;;;;;5078817;28;21525;-60
2022/01/07 12:42:44;;;;;;;6.37;3.03;;;5.50;1.00;;;;;;5083460;28;20228;-59
2022/01/07 12:45:20;;;;;;;7.17;3.30;;;5.50;1.00;;;;;;5071806;28;20241;-60
2022/01/07 12:47:56;;;;;;;5.23;3.13;;;5.50;1.00;;;;;;5104463;28;20174;-59
2022/01/07 12:50:29;;;;;;;5.87;4.27;;;5.50;1.00;;;;;;5091842;28;20229;-59
2022/01/07 12:52:56;;;;;;;4.83;3.20;;;5.50;1.00;;;;;;5063614;28;20197;-59
2022/01/07 12:55:27;;;;;;;5.87;3.80;;;5.50;1.00;;;;;;5084767;28;20263;-59
2022/01/07 12:58:04;;;;;;;4.53;3.73;;;5.50;1.00;;;;;;5093859;28;20197;-59
2022/01/07 13:00:37;;;;;;;5.30;4.00;;;5.40;1.00;;;;;;5079858;28;20586;-59
2022/01/07 13:03:11;;;;;;;6.23;3.73;;;5.40;1.00;;;;;;5096989;28;20202;-59
2022/01/07 13:05:43;;;;;;;6.87;3.90;;;5.30;1.00;;;;;;5082055;28;20186;-59
2022/01/07 13:08:12;;;;;;;6.93;4.27;;;5.30;1.00;;;;;;5034489;28;20251;-59
2022/01/07 13:10:42;;;;;;;5.23;3.27;;;5.30;1.00;;;;;;5062703;28;20209;-59
2022/01/07 13:13:10;;;;;;;6.17;4.47;;;5.20;1.00;;;;;;5068559;28;20214;-59
2022/01/07 13:15:53;;;;;;;7.57;3.80;;;5.20;1.00;;;;;;5062439;28;20198;-59
2022/01/07 13:18:38;;;;;;;7.50;4.50;;;5.30;1.00;;;;;;5085379;28;20218;-59
2022/01/07 13:21:17;;;;;;;5.70;3.93;;;5.40;1.00;;;;;;5046814;28;20288;-59
2022/01/07 13:23:48;;;;;;;4.90;3.60;;;5.40;1.00;;;;;;5062654;28;20259;-59
2022/01/07 13:26:21;;;;;;;5.80;4.03;;;5.30;1.00;;;;;;5064082;28;20252;-60